sensor_id;sensor_type;location;lat;lon;timestamp;P1;P2;P0
74432;PMS7003;62865;53.146;23.172;2023-02-13T00:01:25;30.2;25.4;14.2
74432;PMS7003;62865;53.146;23.172;2023-02-13T00:06:15;35.2;26.6;14.6
74432;PMS7003;62865;53.146;23.172;2023-02-13T00:11:37;35.2;28.8;16
74432;PMS7003;62865;53.146;23.172;2023-02-13T00:16:15;33;27.2;15.6
74432;PMS7003;62865;53.146;23.172;2023-02-13T00:21:15;31.8;26;15.4
74432;PMS7003;62865;53.146;23.172;2023-02-13T00:26:35;34.2;26.8;15.6
74432;PMS7003;62865;53.146;23.172;2023-02-13T00:31:27;29.2;23;13.8
74432;PMS7003;62865;53.146;23.172;2023-02-13T00:36:23;29.8;24.8;15.8
74432;PMS7003;62865;53.146;23.172;2023-02-13T00:41:25;29.2;25.4;13
74432;PMS7003;62865;53.146;23.172;2023-02-13T00:46:25;31.2;24.6;15
74432;PMS7003;62865;53.146;23.172;2023-02-13T00:51:25;32;24.8;14
74432;PMS7003;62865;53.146;23.172;2023-02-13T00:56:15;29;25.4;15.2
74432;PMS7003;62865;53.146;23.172;2023-02-13T01:01:15;29.8;23.8;13.4
74432;PMS7003;62865;53.146;23.172;2023-02-13T01:06:15;32.2;26.6;14.4
74432;PMS7003;62865;53.146;23.172;2023-02-13T01:11:37;27.8;23.4;14
74432;PMS7003;62865;53.146;23.172;2023-02-13T01:16:27;29;21.5;13.5
74432;PMS7003;62865;53.146;23.172;2023-02-13T01:21:15;30;23.4;13.6
74432;PMS7003;62865;53.146;23.172;2023-02-13T01:26:37;28;23.8;14.4
74432;PMS7003;62865;53.146;23.172;2023-02-13T01:31:37;29;24.8;14.4
74432;PMS7003;62865;53.146;23.172;2023-02-13T01:36:15;33.4;27;14.8
74432;PMS7003;62865;53.146;23.172;2023-02-13T01:41:25;37.2;27.4;15.2
74432;PMS7003;62865;53.146;23.172;2023-02-13T01:46:26;32.2;27;15.8
74432;PMS7003;62865;53.146;23.172;2023-02-13T01:51:26;30.8;26.4;14.6
74432;PMS7003;62865;53.146;23.172;2023-02-13T01:56:30;30.2;24.2;13.2
74432;PMS7003;62865;53.146;23.172;2023-02-13T02:01:27;27.8;23.6;14.6
74432;PMS7003;62865;53.146;23.172;2023-02-13T02:06:26;27;22.4;14.4
74432;PMS7003;62865;53.146;23.172;2023-02-13T02:11:27;28;23.4;12.2
74432;PMS7003;62865;53.146;23.172;2023-02-13T02:16:25;31;25.4;13
74432;PMS7003;62865;53.146;23.172;2023-02-13T02:21:34;32.6;24.8;14.2
74432;PMS7003;62865;53.146;23.172;2023-02-13T02:26:21;27.2;22;12.4
74432;PMS7003;62865;53.146;23.172;2023-02-13T02:31:24;29.8;23.2;13.4
74432;PMS7003;62865;53.146;23.172;2023-02-13T02:36:41;29.6;23.8;13.6
74432;PMS7003;62865;53.146;23.172;2023-02-13T02:41:41;27.2;20.2;11.8
74432;PMS7003;62865;53.146;23.172;2023-02-13T02:46:28;24.6;21.4;12.4
74432;PMS7003;62865;53.146;23.172;2023-02-13T02:51:23;26.2;22;12
74432;PMS7003;62865;53.146;23.172;2023-02-13T02:56:17;27.6;23.2;13.2
74432;PMS7003;62865;53.146;23.172;2023-02-13T03:01:26;29.2;24.4;13.2
74432;PMS7003;62865;53.146;23.172;2023-02-13T03:06:15;29.2;22.8;13.6
74432;PMS7003;62865;53.146;23.172;2023-02-13T03:11:25;28;20;11.4
74432;PMS7003;62865;53.146;23.172;2023-02-13T03:16:37;33;22.6;12.8
74432;PMS7003;62865;53.146;23.172;2023-02-13T03:21:16;24.4;21.4;12
74432;PMS7003;62865;53.146;23.172;2023-02-13T03:26:20;26.4;20;11.6
74432;PMS7003;62865;53.146;23.172;2023-02-13T03:31:37;22.2;18.6;11.2
74432;PMS7003;62865;53.146;23.172;2023-02-13T03:36:16;23.6;19;11.6
74432;PMS7003;62865;53.146;23.172;2023-02-13T03:41:17;25.6;21.4;13
74432;PMS7003;62865;53.146;23.172;2023-02-13T03:46:25;24;22;11.8
74432;PMS7003;62865;53.146;23.172;2023-02-13T03:51:27;24.8;18.8;11.8
74432;PMS7003;62865;53.146;23.172;2023-02-13T03:56:15;23;19.8;12.2
74432;PMS7003;62865;53.146;23.172;2023-02-13T04:01:27;24.6;20.2;11.4
74432;PMS7003;62865;53.146;23.172;2023-02-13T04:06:26;24.6;21.4;10.8
74432;PMS7003;62865;53.146;23.172;2023-02-13T04:11:27;22;18.4;11.4
74432;PMS7003;62865;53.146;23.172;2023-02-13T04:16:37;27.6;22.4;12.4
74432;PMS7003;62865;53.146;23.172;2023-02-13T04:21:15;26;19.8;11
74432;PMS7003;62865;53.146;23.172;2023-02-13T04:26:25;22.2;18;11.2
74432;PMS7003;62865;53.146;23.172;2023-02-13T04:31:21;24;18;10
74432;PMS7003;62865;53.146;23.172;2023-02-13T04:36:13;23.2;19;10.2
74432;PMS7003;62865;53.146;23.172;2023-02-13T04:41:15;20.8;17;9.8
74432;PMS7003;62865;53.146;23.172;2023-02-13T04:46:37;19.4;15.8;8.4
74432;PMS7003;62865;53.146;23.172;2023-02-13T04:51:33;14.8;10.6;6.8
74432;PMS7003;62865;53.146;23.172;2023-02-13T04:56:13;17.2;13.4;8
74432;PMS7003;62865;53.146;23.172;2023-02-13T05:01:14;16.8;12.8;7.8
74432;PMS7003;62865;53.146;23.172;2023-02-13T05:06:15;17.8;13.6;8
74432;PMS7003;62865;53.146;23.172;2023-02-13T05:11:15;15.4;12.6;7.8
74432;PMS7003;62865;53.146;23.172;2023-02-13T05:16:23;14.4;13.2;7.6
74432;PMS7003;62865;53.146;23.172;2023-02-13T05:21:47;16.6;13.6;8.6
74432;PMS7003;62865;53.146;23.172;2023-02-13T05:26:33;19.4;15.2;8.2
74432;PMS7003;62865;53.146;23.172;2023-02-13T05:31:25;18.8;13.4;7.8
74432;PMS7003;62865;53.146;23.172;2023-02-13T05:36:35;16.8;13.2;8
74432;PMS7003;62865;53.146;23.172;2023-02-13T05:41:35;16.4;15;8.6
74432;PMS7003;62865;53.146;23.172;2023-02-13T05:46:33;16.4;13.6;8
74432;PMS7003;62865;53.146;23.172;2023-02-13T05:51:23;16.8;13.6;8.2
74432;PMS7003;62865;53.146;23.172;2023-02-13T05:56:21;18;14.8;8.8
74432;PMS7003;62865;53.146;23.172;2023-02-13T06:01:13;17.4;15.2;8.6
74432;PMS7003;62865;53.146;23.172;2023-02-13T06:06:23;16.6;13;8.4
74432;PMS7003;62865;53.146;23.172;2023-02-13T06:11:13;17.2;12.6;9
74432;PMS7003;62865;53.146;23.172;2023-02-13T06:16:13;17;13;8.8
74432;PMS7003;62865;53.146;23.172;2023-02-13T06:21:13;17;12.4;7.8
74432;PMS7003;62865;53.146;23.172;2023-02-13T06:26:37;17.8;13.8;8
74432;PMS7003;62865;53.146;23.172;2023-02-13T06:31:21;15.8;11.4;7.8
74432;PMS7003;62865;53.146;23.172;2023-02-13T06:36:23;15.4;14;8.6
74432;PMS7003;62865;53.146;23.172;2023-02-13T06:41:13;14;11.2;7
74432;PMS7003;62865;53.146;23.172;2023-02-13T06:46:23;17.2;13;7.8
74432;PMS7003;62865;53.146;23.172;2023-02-13T06:51:13;13.6;12;7.6
74432;PMS7003;62865;53.146;23.172;2023-02-13T06:56:25;15.2;12.6;8.2
74432;PMS7003;62865;53.146;23.172;2023-02-13T07:01:13;15;12.4;8
74432;PMS7003;62865;53.146;23.172;2023-02-13T07:06:21;16;12.4;7.4
74432;PMS7003;62865;53.146;23.172;2023-02-13T07:11:16;12.8;11.8;7.6
74432;PMS7003;62865;53.146;23.172;2023-02-13T07:16:13;15;11.2;8
74432;PMS7003;62865;53.146;23.172;2023-02-13T07:21:13;13.6;10.8;8
74432;PMS7003;62865;53.146;23.172;2023-02-13T07:26:23;14.4;11.8;7.6
74432;PMS7003;62865;53.146;23.172;2023-02-13T07:31:13;12.8;10;6.4
74432;PMS7003;62865;53.146;23.172;2023-02-13T07:36:23;13.8;10.8;8
74432;PMS7003;62865;53.146;23.172;2023-02-13T07:41:23;13.2;9.8;7
74432;PMS7003;62865;53.146;23.172;2023-02-13T07:46:23;13;9.8;7.4
74432;PMS7003;62865;53.146;23.172;2023-02-13T07:51:23;14;11;7.6
74432;PMS7003;62865;53.146;23.172;2023-02-13T07:56:27;13.4;11;7.8
74432;PMS7003;62865;53.146;23.172;2023-02-13T08:01:25;16.2;13.2;8.2
74432;PMS7003;62865;53.146;23.172;2023-02-13T08:06:15;15.2;12.8;7.8
74432;PMS7003;62865;53.146;23.172;2023-02-13T08:11:37;12;10.8;7
74432;PMS7003;62865;53.146;23.172;2023-02-13T08:16:25;12.6;10.4;7.4
74432;PMS7003;62865;53.146;23.172;2023-02-13T08:21:25;12;10.6;7
74432;PMS7003;62865;53.146;23.172;2023-02-13T08:26:13;10.2;9.8;6.4
74432;PMS7003;62865;53.146;23.172;2023-02-13T08:31:21;13.2;10.6;7.2
74432;PMS7003;62865;53.146;23.172;2023-02-13T08:36:23;12.4;9.2;6
74432;PMS7003;62865;53.146;23.172;2023-02-13T08:41:33;9.4;8.6;5.2
74432;PMS7003;62865;53.146;23.172;2023-02-13T08:46:23;11.4;9.2;5.6
74432;PMS7003;62865;53.146;23.172;2023-02-13T08:51:25;10;8;5.2
74432;PMS7003;62865;53.146;23.172;2023-02-13T08:56:13;10.6;9.2;6.2
74432;PMS7003;62865;53.146;23.172;2023-02-13T09:01:13;9.8;7.4;4.6
74432;PMS7003;62865;53.146;23.172;2023-02-13T09:06:49;8.6;7.2;4.4
74432;PMS7003;62865;53.146;23.172;2023-02-13T09:11:25;9.6;7.4;4.6
74432;PMS7003;62865;53.146;23.172;2023-02-13T09:16:23;9;7.4;5.6
74432;PMS7003;62865;53.146;23.172;2023-02-13T09:21:23;8.2;8.2;5.4
74432;PMS7003;62865;53.146;23.172;2023-02-13T09:26:13;9.4;8.6;6.2
74432;PMS7003;62865;53.146;23.172;2023-02-13T09:31:14;9.8;8.2;4.8
74432;PMS7003;62865;53.146;23.172;2023-02-13T09:36:25;10;8.2;5.8
74432;PMS7003;62865;53.146;23.172;2023-02-13T09:41:43;8.4;7.8;5.2
74432;PMS7003;62865;53.146;23.172;2023-02-13T09:46:27;10.2;8.8;5.8
74432;PMS7003;62865;53.146;23.172;2023-02-13T09:51:13;9.8;9.6;6
74432;PMS7003;62865;53.146;23.172;2023-02-13T09:56:14;10.6;9.4;5.8
74432;PMS7003;62865;53.146;23.172;2023-02-13T10:01:25;12.8;10.6;7.4
74432;PMS7003;62865;53.146;23.172;2023-02-13T10:06:34;8.8;8;5.2
74432;PMS7003;62865;53.146;23.172;2023-02-13T10:11:39;11;8.6;6
74432;PMS7003;62865;53.146;23.172;2023-02-13T10:16:26;12;10.2;7
74432;PMS7003;62865;53.146;23.172;2023-02-13T10:21:36;11;9.4;6
74432;PMS7003;62865;53.146;23.172;2023-02-13T10:26:15;12;10.4;7.6
74432;PMS7003;62865;53.146;23.172;2023-02-13T10:31:23;12.6;10.6;8
74432;PMS7003;62865;53.146;23.172;2023-02-13T10:36:33;10.8;9.2;5.2
74432;PMS7003;62865;53.146;23.172;2023-02-13T10:41:24;12;10.4;6.6
74432;PMS7003;62865;53.146;23.172;2023-02-13T10:46:17;10.6;9.2;5.2
74432;PMS7003;62865;53.146;23.172;2023-02-13T10:51:24;11.6;10;6.2
74432;PMS7003;62865;53.146;23.172;2023-02-13T10:56:24;11.6;9.6;5.8
74432;PMS7003;62865;53.146;23.172;2023-02-13T11:01:26;10.6;8.8;5.8
74432;PMS7003;62865;53.146;23.172;2023-02-13T11:06:35;12.2;9.8;6.8
74432;PMS7003;62865;53.146;23.172;2023-02-13T11:11:31;10.4;9.2;5.8
74432;PMS7003;62865;53.146;23.172;2023-02-13T11:16:13;11.4;9.2;6
74432;PMS7003;62865;53.146;23.172;2023-02-13T11:21:15;11;9.6;6
74432;PMS7003;62865;53.146;23.172;2023-02-13T11:26:13;11;10;6.4
74432;PMS7003;62865;53.146;23.172;2023-02-13T11:31:30;10.6;9.8;6.4
74432;PMS7003;62865;53.146;23.172;2023-02-13T11:36:15;10.8;8;6
74432;PMS7003;62865;53.146;23.172;2023-02-13T11:41:14;10.6;9.8;5.8
74432;PMS7003;62865;53.146;23.172;2023-02-13T11:46:22;11;9.4;5.2
74432;PMS7003;62865;53.146;23.172;2023-02-13T11:51:13;10.2;8.4;5.2
74432;PMS7003;62865;53.146;23.172;2023-02-13T11:56:21;11.4;9.8;6.4
74432;PMS7003;62865;53.146;23.172;2023-02-13T12:01:23;12;10.2;6.2
74432;PMS7003;62865;53.146;23.172;2023-02-13T12:06:14;7.4;5.6;3.6
74432;PMS7003;62865;53.146;23.172;2023-02-13T12:11:16;4.6;4.2;3
74432;PMS7003;62865;53.146;23.172;2023-02-13T12:16:15;6.2;4.2;2.8
74432;PMS7003;62865;53.146;23.172;2023-02-13T12:21:46;9.8;8.2;4.2
74432;PMS7003;62865;53.146;23.172;2023-02-13T12:26:22;9.4;7;4.2
74432;PMS7003;62865;53.146;23.172;2023-02-13T12:31:38;7.4;5;3.4
74432;PMS7003;62865;53.146;23.172;2023-02-13T12:36:24;9.4;6;4
74432;PMS7003;62865;53.146;23.172;2023-02-13T12:41:21;9;8.4;6
74432;PMS7003;62865;53.146;23.172;2023-02-13T12:46:14;10;7.8;4.8
74432;PMS7003;62865;53.146;23.172;2023-02-13T12:51:24;8.8;8.6;5.2
74432;PMS7003;62865;53.146;23.172;2023-02-13T12:56:25;11.8;9.6;6.2
74432;PMS7003;62865;53.146;23.172;2023-02-13T13:01:23;10;8.6;5.2
74432;PMS7003;62865;53.146;23.172;2023-02-13T13:06:36;8.6;8.4;5.2
74432;PMS7003;62865;53.146;23.172;2023-02-13T13:11:31;9.2;7.8;5.2
74432;PMS7003;62865;53.146;23.172;2023-02-13T13:16:25;9;7.8;5
74432;PMS7003;62865;53.146;23.172;2023-02-13T13:21:24;10.4;8.6;5.2
74432;PMS7003;62865;53.146;23.172;2023-02-13T13:26:15;11;9.8;6.2
74432;PMS7003;62865;53.146;23.172;2023-02-13T13:31:13;8.2;7.6;4.6
74432;PMS7003;62865;53.146;23.172;2023-02-13T13:36:46;9.6;8.6;5.6
74432;PMS7003;62865;53.146;23.172;2023-02-13T13:41:26;11.2;8.8;5.4
74432;PMS7003;62865;53.146;23.172;2023-02-13T13:46:25;11;7.6;5
74432;PMS7003;62865;53.146;23.172;2023-02-13T13:51:25;11;9.2;5.2
74432;PMS7003;62865;53.146;23.172;2023-02-13T13:56:13;8.8;8.6;5
74432;PMS7003;62865;53.146;23.172;2023-02-13T14:01:26;9.6;8;4.6
74432;PMS7003;62865;53.146;23.172;2023-02-13T14:06:13;9.8;7.6;4.8
74432;PMS7003;62865;53.146;23.172;2023-02-13T14:11:36;8.6;7;4
74432;PMS7003;62865;53.146;23.172;2023-02-13T14:16:36;6.4;6.2;4.2
74432;PMS7003;62865;53.146;23.172;2023-02-13T14:21:20;8;6;4.6
74432;PMS7003;62865;53.146;23.172;2023-02-13T14:26:19;9.2;7.4;4.6
74432;PMS7003;62865;53.146;23.172;2023-02-13T14:31:24;9.4;7.2;5
74432;PMS7003;62865;53.146;23.172;2023-02-13T14:36:34;7.6;6.8;4.2
74432;PMS7003;62865;53.146;23.172;2023-02-13T14:41:39;9.2;7;5.6
74432;PMS7003;62865;53.146;23.172;2023-02-13T14:46:28;11.4;8.6;5.4
74432;PMS7003;62865;53.146;23.172;2023-02-13T14:51:25;9;7.2;5.2
74432;PMS7003;62865;53.146;23.172;2023-02-13T14:56:36;10.6;7.6;4.4
74432;PMS7003;62865;53.146;23.172;2023-02-13T15:01:16;9;7.6;6.4
74432;PMS7003;62865;53.146;23.172;2023-02-13T15:06:34;10.2;8.2;5.8
74432;PMS7003;62865;53.146;23.172;2023-02-13T15:11:34;12;8.6;5.4
74432;PMS7003;62865;53.146;23.172;2023-02-13T15:17:01;11.4;9.6;6.4
74432;PMS7003;62865;53.146;23.172;2023-02-13T15:21:35;12.2;10.2;6.8
74432;PMS7003;62865;53.146;23.172;2023-02-13T15:26:25;12;9.6;7.2
74432;PMS7003;62865;53.146;23.172;2023-02-13T15:31:20;10.6;9.6;6.2
74432;PMS7003;62865;53.146;23.172;2023-02-13T15:36:24;10.4;8.6;6.2
74432;PMS7003;62865;53.146;23.172;2023-02-13T15:41:23;12;10.4;7.6
74432;PMS7003;62865;53.146;23.172;2023-02-13T15:46:24;12.8;11;8
74432;PMS7003;62865;53.146;23.172;2023-02-13T15:51:17;15;10.8;7.5
74432;PMS7003;62865;53.146;23.172;2023-02-13T15:56:33;17.3;13.2;8
74432;PMS7003;62865;53.146;23.172;2023-02-13T16:01:25;10.8;9.2;6.8
74432;PMS7003;62865;53.146;23.172;2023-02-13T16:06:14;12.8;11.4;8
74432;PMS7003;62865;53.146;23.172;2023-02-13T16:11:31;15;13;8.4
74432;PMS7003;62865;53.146;23.172;2023-02-13T16:16:13;14.6;11.8;8
74432;PMS7003;62865;53.146;23.172;2023-02-13T16:21:33;12.6;9.8;7
74432;PMS7003;62865;53.146;23.172;2023-02-13T16:26:14;12;10.4;7.4
74432;PMS7003;62865;53.146;23.172;2023-02-13T16:31:23;11.8;9.6;6.4
74432;PMS7003;62865;53.146;23.172;2023-02-13T16:36:17;8;6.8;5
74432;PMS7003;62865;53.146;23.172;2023-02-13T16:41:31;9.8;8.2;5.6
74432;PMS7003;62865;53.146;23.172;2023-02-13T16:46:36;10.8;9.8;6.8
74432;PMS7003;62865;53.146;23.172;2023-02-13T16:51:13;10.8;8.4;6
74432;PMS7003;62865;53.146;23.172;2023-02-13T16:56:36;12.2;8.4;5.4
74432;PMS7003;62865;53.146;23.172;2023-02-13T17:01:13;10.8;7.6;4.6
74432;PMS7003;62865;53.146;23.172;2023-02-13T17:06:13;7.8;6;3.8
74432;PMS7003;62865;53.146;23.172;2023-02-13T17:11:48;6;5;3.8
74432;PMS7003;62865;53.146;23.172;2023-02-13T17:16:13;4;3.6;2.6
74432;PMS7003;62865;53.146;23.172;2023-02-13T17:21:35;5.2;4.4;2.6
74432;PMS7003;62865;53.146;23.172;2023-02-13T17:26:13;5.6;4.4;2.6
74432;PMS7003;62865;53.146;23.172;2023-02-13T17:31:35;4.8;3.6;2.8
74432;PMS7003;62865;53.146;23.172;2023-02-13T17:36:23;4.4;4;2.4
74432;PMS7003;62865;53.146;23.172;2023-02-13T17:41:23;6;4.2;2.6
74432;PMS7003;62865;53.146;23.172;2023-02-13T17:46:31;7;5;3.6
74432;PMS7003;62865;53.146;23.172;2023-02-13T17:51:23;7;5.8;3.4
74432;PMS7003;62865;53.146;23.172;2023-02-13T17:56:23;7;6.4;3.6
74432;PMS7003;62865;53.146;23.172;2023-02-13T18:01:13;7.2;5;2.8
74432;PMS7003;62865;53.146;23.172;2023-02-13T18:06:23;6.8;5.2;3.2
74432;PMS7003;62865;53.146;23.172;2023-02-13T18:11:21;6;4.6;2.6
74432;PMS7003;62865;53.146;23.172;2023-02-13T18:16:25;6;4.2;2.8
74432;PMS7003;62865;53.146;23.172;2023-02-13T18:21:13;5.4;4.2;2.8
74432;PMS7003;62865;53.146;23.172;2023-02-13T18:26:35;6;5.8;3.8
74432;PMS7003;62865;53.146;23.172;2023-02-13T18:31:13;6.2;5.4;3.2
74432;PMS7003;62865;53.146;23.172;2023-02-13T18:36:13;5;4.4;3.2
74432;PMS7003;62865;53.146;23.172;2023-02-13T18:41:13;5.5;4.3;3
74432;PMS7003;62865;53.146;23.172;2023-02-13T18:46:14;6.6;4.2;3.2
74432;PMS7003;62865;53.146;23.172;2023-02-13T18:51:23;6.8;6;3.4
74432;PMS7003;62865;53.146;23.172;2023-02-13T18:56:33;7;5.2;3.4
74432;PMS7003;62865;53.146;23.172;2023-02-13T19:01:45;5.4;4.2;2.8
74432;PMS7003;62865;53.146;23.172;2023-02-13T19:06:31;7;5.6;3.2
74432;PMS7003;62865;53.146;23.172;2023-02-13T19:11:33;5;4.4;2.8
74432;PMS7003;62865;53.146;23.172;2023-02-13T19:16:45;4.4;3.6;2.4
74432;PMS7003;62865;53.146;23.172;2023-02-13T19:21:24;6.4;4.6;2.6
74432;PMS7003;62865;53.146;23.172;2023-02-13T19:26:14;6.2;4.8;2.8
74432;PMS7003;62865;53.146;23.172;2023-02-13T19:31:14;4.6;3.2;2.4
74432;PMS7003;62865;53.146;23.172;2023-02-13T19:36:14;5.6;3.4;2.4
74432;PMS7003;62865;53.146;23.172;2023-02-13T19:41:47;6.6;5;3.8
74432;PMS7003;62865;53.146;23.172;2023-02-13T19:46:26;6.6;4.6;3.6
74432;PMS7003;62865;53.146;23.172;2023-02-13T19:51:24;4.4;3.6;2.6
74432;PMS7003;62865;53.146;23.172;2023-02-13T19:56:13;5;3.6;2.6
74432;PMS7003;62865;53.146;23.172;2023-02-13T20:01:31;4.2;3.6;2.6
74432;PMS7003;62865;53.146;23.172;2023-02-13T20:06:26;6.8;5.4;3.4
74432;PMS7003;62865;53.146;23.172;2023-02-13T20:11:23;5;4.4;3.4
74432;PMS7003;62865;53.146;23.172;2023-02-13T20:16:14;6;5;2.6
74432;PMS7003;62865;53.146;23.172;2023-02-13T20:21:14;5;3.6;2.4
74432;PMS7003;62865;53.146;23.172;2023-02-13T20:26:37;3.8;3;2.2
74432;PMS7003;62865;53.146;23.172;2023-02-13T20:31:14;3.6;3.6;2.4
74432;PMS7003;62865;53.146;23.172;2023-02-13T20:36:25;4.6;3.2;2
74432;PMS7003;62865;53.146;23.172;2023-02-13T20:41:26;6;5;2.8
74432;PMS7003;62865;53.146;23.172;2023-02-13T20:46:25;5.2;3.2;2.2
74432;PMS7003;62865;53.146;23.172;2023-02-13T20:51:14;5.4;4.8;3
74432;PMS7003;62865;53.146;23.172;2023-02-13T20:56:31;5.2;4.4;3
74432;PMS7003;62865;53.146;23.172;2023-02-13T21:01:24;5.4;3.6;2.4
74432;PMS7003;62865;53.146;23.172;2023-02-13T21:06:13;5.8;4.8;2.6
74432;PMS7003;62865;53.146;23.172;2023-02-13T21:11:36;5.8;4.4;2.8
74432;PMS7003;62865;53.146;23.172;2023-02-13T21:16:14;6;4.8;2.6
74432;PMS7003;62865;53.146;23.172;2023-02-13T21:21:13;6.3;4.5;2.8
74432;PMS7003;62865;53.146;23.172;2023-02-13T21:26:33;6.4;5.6;3.4
74432;PMS7003;62865;53.146;23.172;2023-02-13T21:31:34;6.6;4.6;3
74432;PMS7003;62865;53.146;23.172;2023-02-13T21:36:13;6;5;3
74432;PMS7003;62865;53.146;23.172;2023-02-13T21:41:33;6.6;3.6;2.8
74432;PMS7003;62865;53.146;23.172;2023-02-13T21:46:34;6;5.2;3.2
74432;PMS7003;62865;53.146;23.172;2023-02-13T21:51:34;4.6;3.4;2.2
74432;PMS7003;62865;53.146;23.172;2023-02-13T21:56:22;5.8;3.2;2.4
74432;PMS7003;62865;53.146;23.172;2023-02-13T22:01:35;7;4.2;3
74432;PMS7003;62865;53.146;23.172;2023-02-13T22:06:23;5.6;3.6;2.4
74432;PMS7003;62865;53.146;23.172;2023-02-13T22:11:35;6.2;4;2.6
74432;PMS7003;62865;53.146;23.172;2023-02-13T22:16:48;5.8;3.8;1.8
74432;PMS7003;62865;53.146;23.172;2023-02-13T22:21:14;4;3;2
74432;PMS7003;62865;53.146;23.172;2023-02-13T22:26:36;3.8;3.4;2.4
74432;PMS7003;62865;53.146;23.172;2023-02-13T22:31:13;5;3.6;2.2
74432;PMS7003;62865;53.146;23.172;2023-02-13T22:36:34;5.4;4.8;2.8
74432;PMS7003;62865;53.146;23.172;2023-02-13T22:41:35;4.6;3.8;2.4
74432;PMS7003;62865;53.146;23.172;2023-02-13T22:46:24;6.4;4.2;2.6
74432;PMS7003;62865;53.146;23.172;2023-02-13T22:51:24;6.2;4.6;2
74432;PMS7003;62865;53.146;23.172;2023-02-13T22:56:13;8;5.4;3.2
74432;PMS7003;62865;53.146;23.172;2023-02-13T23:01:22;5.8;5.2;3.2
74432;PMS7003;62865;53.146;23.172;2023-02-13T23:06:35;7.4;5.6;3.2
74432;PMS7003;62865;53.146;23.172;2023-02-13T23:11:14;6.2;5.6;3.4
74432;PMS7003;62865;53.146;23.172;2023-02-13T23:16:13;6.8;4.8;3.2
74432;PMS7003;62865;53.146;23.172;2023-02-13T23:21:25;6.8;5.6;3.2
74432;PMS7003;62865;53.146;23.172;2023-02-13T23:26:25;7.2;6.6;3.4
74432;PMS7003;62865;53.146;23.172;2023-02-13T23:31:13;6.6;4.6;2.6
74432;PMS7003;62865;53.146;23.172;2023-02-13T23:36:13;6.4;5;3.4
74432;PMS7003;62865;53.146;23.172;2023-02-13T23:41:23;7.4;6.4;4
74432;PMS7003;62865;53.146;23.172;2023-02-13T23:46:13;7.2;5.2;3
74432;PMS7003;62865;53.146;23.172;2023-02-13T23:51:33;7;5;3
74432;PMS7003;62865;53.146;23.172;2023-02-13T23:56:13;6.4;5.2;3
